createdAt,value
2022-07-26T00:01:19.156Z,0.60
2022-07-26T00:03:48.368Z,0.40
2022-07-26T00:06:16.492Z,0.50
2022-07-26T00:08:47.993Z,0.50
2022-07-26T00:11:15.959Z,0.50
2022-07-26T00:13:43.814Z,0.60
2022-07-26T00:16:11.759Z,0.50
2022-07-26T00:18:39.469Z,0.40
2022-07-26T00:21:07.075Z,0.40
2022-07-26T00:23:35.248Z,0.50
2022-07-26T00:26:02.859Z,0.63
2022-07-26T00:28:30.535Z,0.50
2022-07-26T00:30:58.272Z,0.43
2022-07-26T00:33:25.953Z,0.50
2022-07-26T00:35:53.588Z,0.60
2022-07-26T00:38:21.278Z,0.70
2022-07-26T00:40:48.909Z,0.50
2022-07-26T00:43:16.513Z,0.40
2022-07-26T00:45:44.341Z,0.60
2022-07-26T00:48:12.118Z,0.40
2022-07-26T00:50:39.676Z,0.50
2022-07-26T00:53:07.398Z,0.50
2022-07-26T00:55:35.289Z,0.40
2022-07-26T00:58:03.124Z,0.40
2022-07-26T01:00:30.828Z,0.60
2022-07-26T01:03:00.612Z,0.40
2022-07-26T01:05:29.246Z,0.53
2022-07-26T01:07:58.048Z,0.50
2022-07-26T01:13:22.840Z,0.30
2022-07-26T01:15:50.597Z,0.40
2022-07-26T01:18:18.315Z,0.50
2022-07-26T01:20:48.000Z,0.32
2022-07-26T01:23:15.937Z,0.40
2022-07-26T01:25:43.877Z,0.50
2022-07-26T01:28:20.152Z,0.40
2022-07-26T01:30:49.234Z,0.40
2022-07-26T01:33:17.127Z,0.40
2022-07-26T01:35:45.175Z,0.40
2022-07-26T01:38:12.933Z,0.30
2022-07-26T01:40:40.619Z,0.30
2022-07-26T01:43:08.190Z,0.33
2022-07-26T01:45:35.844Z,0.40
2022-07-26T01:48:03.534Z,0.30
2022-07-26T01:50:31.109Z,0.40
2022-07-26T01:52:58.708Z,0.30
2022-07-26T01:55:26.361Z,0.23
2022-07-26T01:57:54.394Z,0.30
2022-07-26T02:00:22.070Z,0.20
2022-07-26T02:02:49.941Z,0.20
2022-07-26T02:05:17.671Z,0.25
2022-07-26T02:07:45.394Z,0.20
2022-07-26T02:10:14.624Z,0.30
2022-07-26T02:12:42.786Z,0.38
2022-07-26T02:15:11.960Z,0.20
2022-07-26T02:17:39.992Z,0.30
2022-07-26T02:20:08.615Z,0.27
2022-07-26T02:22:36.466Z,0.30
2022-07-26T02:25:05.561Z,0.30
2022-07-26T02:27:33.588Z,0.30
2022-07-26T02:30:02.078Z,0.38
2022-07-26T02:32:29.721Z,0.30
2022-07-26T02:34:57.289Z,0.47
2022-07-26T02:37:24.903Z,0.30
2022-07-26T02:39:52.526Z,0.30
2022-07-26T02:42:20.154Z,0.40
2022-07-26T02:44:47.703Z,0.20
2022-07-26T02:47:15.383Z,0.40
2022-07-26T02:49:42.966Z,0.30
2022-07-26T02:52:11.848Z,0.30
2022-07-26T02:54:39.521Z,0.22
2022-07-26T02:57:07.193Z,0.30
2022-07-26T02:59:34.810Z,0.30
2022-07-26T03:02:02.651Z,0.30
2022-07-26T03:04:30.562Z,0.73
2022-07-26T03:06:58.160Z,0.50
2022-07-26T03:09:25.843Z,0.40
2022-07-26T03:11:53.506Z,0.38
2022-07-26T03:14:21.185Z,0.30
2022-07-26T03:16:49.076Z,0.40
2022-07-26T03:19:16.690Z,0.30
2022-07-26T03:21:44.278Z,0.30
2022-07-26T03:24:12.035Z,0.40
2022-07-26T03:26:39.924Z,0.40
2022-07-26T03:29:07.523Z,0.43
2022-07-26T03:31:37.144Z,0.60
2022-07-26T03:34:04.989Z,0.40
2022-07-26T03:36:33.006Z,0.40
2022-07-26T03:39:00.682Z,0.50
2022-07-26T03:41:28.587Z,0.38
2022-07-26T03:43:56.176Z,0.63
2022-07-26T03:46:24.066Z,0.50
2022-07-26T03:48:51.783Z,0.40
2022-07-26T03:51:19.709Z,0.32
2022-07-26T03:53:48.128Z,0.30
2022-07-26T03:56:34.423Z,0.40
2022-07-26T03:59:07.574Z,0.30
2022-07-26T04:01:37.419Z,0.43
2022-07-26T04:04:05.360Z,0.40
2022-07-26T04:06:37.681Z,0.40
2022-07-26T04:09:07.449Z,0.60
2022-07-26T04:11:35.810Z,0.40
2022-07-26T04:14:04.737Z,0.50
2022-07-26T04:16:32.803Z,0.40
2022-07-26T04:19:00.418Z,0.40
2022-07-26T04:21:28.417Z,0.43
2022-07-26T04:23:56.049Z,0.50
2022-07-26T04:26:23.822Z,0.40
2022-07-26T04:28:57.546Z,0.38
2022-07-26T04:31:26.623Z,0.40
2022-07-26T04:33:54.386Z,0.30
2022-07-26T04:36:22.025Z,0.43
2022-07-26T04:38:49.673Z,0.30
2022-07-26T04:41:17.392Z,0.40
2022-07-26T04:43:45.093Z,0.50
2022-07-26T04:46:12.744Z,0.40
2022-07-26T04:48:40.445Z,0.40
2022-07-26T04:51:08.038Z,0.40
2022-07-26T04:53:35.695Z,0.40
2022-07-26T04:56:03.498Z,0.40
2022-07-26T04:58:31.398Z,0.40
2022-07-26T05:01:10.080Z,0.33
2022-07-26T05:03:39.450Z,0.30
2022-07-26T05:06:07.260Z,0.40
2022-07-26T05:08:34.931Z,0.40
2022-07-26T05:11:04.253Z,0.35
2022-07-26T05:13:32.101Z,0.30
2022-07-26T05:16:00.855Z,0.60
2022-07-26T05:18:31.819Z,0.30
2022-07-26T05:21:11.733Z,0.60
2022-07-26T05:23:39.734Z,0.60
2022-07-26T05:26:07.782Z,0.33
2022-07-26T05:28:35.819Z,0.40
2022-07-26T05:31:03.617Z,0.40
2022-07-26T05:33:31.587Z,0.60
2022-07-26T05:36:14.942Z,0.40
2022-07-26T05:38:42.730Z,0.53
2022-07-26T05:41:10.335Z,0.40
2022-07-26T05:43:40.593Z,0.47
2022-07-26T05:46:11.010Z,0.45
2022-07-26T05:48:40.015Z,0.40
2022-07-26T05:51:07.898Z,0.50
2022-07-26T05:53:35.816Z,0.45
2022-07-26T05:56:04.959Z,0.45
2022-07-26T05:58:32.680Z,0.45
2022-07-26T06:01:00.450Z,0.50
2022-07-26T06:03:28.637Z,0.50
2022-07-26T06:05:57.786Z,0.40
2022-07-26T06:08:27.023Z,0.50
2022-07-26T06:10:55.309Z,0.40
2022-07-26T06:13:23.376Z,0.40
2022-07-26T06:15:52.066Z,0.30
2022-07-26T06:18:19.917Z,0.47
2022-07-26T06:20:48.600Z,0.50
2022-07-26T06:23:16.616Z,0.40
2022-07-26T06:25:44.388Z,0.50
2022-07-26T06:28:12.047Z,0.30
2022-07-26T06:30:40.349Z,0.50
2022-07-26T06:33:09.699Z,0.43
2022-07-26T06:35:39.361Z,0.43
2022-07-26T06:38:07.630Z,0.50
2022-07-26T06:40:35.577Z,0.63
2022-07-26T06:43:04.679Z,0.50
2022-07-26T06:45:34.030Z,0.43
2022-07-26T06:48:02.108Z,0.50
2022-07-26T06:50:29.847Z,0.45
2022-07-26T06:52:57.559Z,0.50
2022-07-26T06:55:25.291Z,0.55
2022-07-26T06:57:52.889Z,0.40
2022-07-26T07:00:20.594Z,0.30
2022-07-26T07:02:48.783Z,0.40
2022-07-26T07:05:16.794Z,0.50
2022-07-26T07:07:45.087Z,0.40
2022-07-26T07:10:14.348Z,0.40
2022-07-26T07:12:44.788Z,0.40
2022-07-26T07:15:12.688Z,0.30
2022-07-26T07:17:40.436Z,0.30
2022-07-26T07:20:08.408Z,0.20
2022-07-26T07:22:36.217Z,0.30
2022-07-26T07:25:06.002Z,0.40
2022-07-26T07:27:33.917Z,0.40
2022-07-26T07:30:01.613Z,0.40
2022-07-26T07:32:29.589Z,0.32
2022-07-26T07:34:57.352Z,0.30
2022-07-26T07:37:24.957Z,0.35
2022-07-26T07:39:52.705Z,0.40
2022-07-26T07:42:21.747Z,0.30
2022-07-26T07:44:50.427Z,0.40
2022-07-26T07:47:18.127Z,0.40
2022-07-26T07:49:45.760Z,0.30
2022-07-26T07:52:13.594Z,0.40
2022-07-26T07:54:42.163Z,0.50
2022-07-26T07:57:10.502Z,0.50
2022-07-26T07:59:39.264Z,0.40
2022-07-26T08:02:07.375Z,0.50
2022-07-26T08:04:35.718Z,0.52
2022-07-26T08:07:03.563Z,0.47
2022-07-26T08:09:33.883Z,0.57
2022-07-26T08:12:02.526Z,0.40
2022-07-26T08:14:30.323Z,0.55
2022-07-26T08:16:58.281Z,0.60
2022-07-26T08:19:40.802Z,0.60
2022-07-26T08:22:18.551Z,0.60
2022-07-26T08:24:47.350Z,0.60
2022-07-26T08:27:15.158Z,0.65
2022-07-26T08:29:42.874Z,0.60
2022-07-26T08:32:10.506Z,0.57
2022-07-26T08:34:39.235Z,0.80
2022-07-26T08:37:17.129Z,0.87
2022-07-26T08:39:47.577Z,0.68
2022-07-26T08:42:24.609Z,0.68
2022-07-26T08:44:52.748Z,0.80
2022-07-26T08:47:36.205Z,1.00
2022-07-26T08:50:08.497Z,0.73
2022-07-26T08:52:40.053Z,0.80
2022-07-26T08:55:07.975Z,1.02
2022-07-26T08:57:35.619Z,0.80
2022-07-26T09:00:22.241Z,0.90
2022-07-26T09:02:49.898Z,0.83
2022-07-26T09:05:20.216Z,0.88
2022-07-26T09:07:48.137Z,1.00
2022-07-26T09:10:28.385Z,1.00
2022-07-26T09:12:57.639Z,1.00
2022-07-26T09:15:27.728Z,1.03
2022-07-26T09:17:57.760Z,1.10
2022-07-26T09:20:27.876Z,1.00
2022-07-26T09:23:06.321Z,1.20
2022-07-26T09:25:37.036Z,1.25
2022-07-26T09:28:21.066Z,1.00
2022-07-26T09:31:04.628Z,1.10
2022-07-26T09:33:48.929Z,1.10
2022-07-26T09:36:18.169Z,1.00
2022-07-26T09:38:54.636Z,1.10
2022-07-26T09:41:29.245Z,1.27
2022-07-26T09:44:00.615Z,0.80
2022-07-26T09:46:30.830Z,0.93
2022-07-26T09:49:11.556Z,0.82
2022-07-26T09:51:47.888Z,0.70
2022-07-26T09:54:21.057Z,0.90
2022-07-26T09:56:51.133Z,0.70
2022-07-26T09:59:24.230Z,0.70
2022-07-26T10:01:54.458Z,0.85
2022-07-26T10:04:23.257Z,0.80
2022-07-26T10:06:51.864Z,0.90
2022-07-26T10:09:20.248Z,0.60
2022-07-26T10:11:50.859Z,1.00
2022-07-26T10:14:33.515Z,1.10
2022-07-26T10:17:21.673Z,0.63
2022-07-26T10:20:04.448Z,0.80
2022-07-26T10:22:50.719Z,0.90
2022-07-26T10:25:18.532Z,0.80
2022-07-26T10:27:51.945Z,0.80
2022-07-26T10:30:19.605Z,0.85
2022-07-26T10:33:04.160Z,0.63
2022-07-26T10:35:41.145Z,0.68
2022-07-26T10:38:12.919Z,0.80
2022-07-26T10:40:59.327Z,0.70
2022-07-26T10:43:43.471Z,0.80
2022-07-26T10:46:17.963Z,0.90
2022-07-26T10:49:03.970Z,0.88
2022-07-26T10:51:37.601Z,0.70
2022-07-26T10:54:08.735Z,1.10
2022-07-26T10:56:36.749Z,0.98
2022-07-26T10:59:05.934Z,1.00
2022-07-26T11:01:34.520Z,1.10
2022-07-26T11:04:02.268Z,1.20
2022-07-26T11:06:30.662Z,1.05
2022-07-26T11:08:58.520Z,0.80
2022-07-26T11:11:31.882Z,1.20
2022-07-26T11:14:06.842Z,1.10
2022-07-26T11:16:42.771Z,1.30
2022-07-26T11:19:18.754Z,1.48
2022-07-26T11:21:52.855Z,1.40
2022-07-26T11:24:22.212Z,1.20
2022-07-26T11:26:50.358Z,1.60
2022-07-26T11:29:38.960Z,1.10
2022-07-26T11:32:22.145Z,1.38
2022-07-26T11:35:04.651Z,1.15
2022-07-26T11:37:32.553Z,1.20
2022-07-26T11:40:00.250Z,1.10
2022-07-26T11:42:28.030Z,1.10
2022-07-26T11:44:55.654Z,1.30
2022-07-26T11:47:26.262Z,1.15
2022-07-26T11:52:43.153Z,1.40
2022-07-26T11:55:10.887Z,1.38
2022-07-26T11:57:38.643Z,1.40
2022-07-26T12:00:07.222Z,1.50
2022-07-26T12:02:40.876Z,1.60
2022-07-26T12:05:19.028Z,1.23
2022-07-26T12:08:04.101Z,1.80
2022-07-26T12:10:32.116Z,1.40
2022-07-26T12:13:08.631Z,1.27
2022-07-26T12:15:50.118Z,1.23
2022-07-26T12:18:29.724Z,1.48
2022-07-26T12:21:06.658Z,1.48
2022-07-26T12:23:43.074Z,1.75
2022-07-26T12:26:28.378Z,1.38
2022-07-26T12:28:57.661Z,1.10
2022-07-26T12:31:30.616Z,1.42
2022-07-26T12:33:58.907Z,0.90
2022-07-26T12:36:29.397Z,1.00
2022-07-26T12:38:59.431Z,1.17
2022-07-26T12:41:46.556Z,1.10
2022-07-26T12:44:15.791Z,1.10
2022-07-26T12:46:45.078Z,1.40
2022-07-26T12:49:13.509Z,0.90
2022-07-26T12:51:41.680Z,1.20
2022-07-26T12:54:09.699Z,1.27
2022-07-26T12:56:37.481Z,1.10
2022-07-26T12:59:05.222Z,1.00
2022-07-26T13:01:33.152Z,0.90
2022-07-26T13:04:01.128Z,1.00
2022-07-26T13:06:28.925Z,1.00
2022-07-26T13:08:56.740Z,1.00
2022-07-26T13:11:25.104Z,1.10
2022-07-26T13:13:52.893Z,1.20
2022-07-26T13:16:20.570Z,1.05
2022-07-26T13:18:48.219Z,1.10
2022-07-26T13:21:15.899Z,1.00
2022-07-26T13:23:43.550Z,0.90
2022-07-26T13:26:11.180Z,0.90
2022-07-26T13:28:40.643Z,1.20
2022-07-26T13:31:08.513Z,1.10
2022-07-26T13:33:39.398Z,0.80
2022-07-26T13:36:07.345Z,0.82
2022-07-26T13:38:35.335Z,0.80
2022-07-26T13:41:03.727Z,0.70
2022-07-26T13:43:31.660Z,0.70
2022-07-26T13:45:59.367Z,0.80
2022-07-26T13:48:27.047Z,1.00
2022-07-26T13:50:55.558Z,0.80
2022-07-26T13:53:25.126Z,0.80
2022-07-26T13:55:52.761Z,0.80
2022-07-26T13:58:22.141Z,0.63
2022-07-26T14:00:49.944Z,0.75
2022-07-26T14:03:17.695Z,0.85
2022-07-26T14:05:45.539Z,0.90
2022-07-26T14:08:13.282Z,0.80
2022-07-26T14:10:41.311Z,1.00
2022-07-26T14:13:09.474Z,0.88
2022-07-26T14:15:37.256Z,0.90
2022-07-26T14:18:04.925Z,0.88
2022-07-26T14:20:32.852Z,0.80
2022-07-26T14:23:00.520Z,1.05
2022-07-26T14:25:28.734Z,1.00
2022-07-26T14:27:56.413Z,0.90
2022-07-26T14:30:24.135Z,0.90
2022-07-26T14:32:51.795Z,0.80
2022-07-26T14:35:19.621Z,0.75
2022-07-26T14:37:47.731Z,0.80
2022-07-26T14:40:16.741Z,0.73
2022-07-26T14:42:45.579Z,0.70
2022-07-26T14:45:14.547Z,0.90
2022-07-26T14:47:42.947Z,0.80
2022-07-26T14:50:13.682Z,1.00
2022-07-26T14:52:44.710Z,0.80
2022-07-26T14:55:13.995Z,0.80
2022-07-26T14:57:43.089Z,0.80
2022-07-26T15:00:14.113Z,0.80
2022-07-26T15:02:45.467Z,1.00
2022-07-26T15:05:14.437Z,0.80
2022-07-26T15:07:43.251Z,0.75
2022-07-26T15:10:13.616Z,0.87
2022-07-26T15:12:41.909Z,1.73
2022-07-26T15:15:10.634Z,0.80
2022-07-26T15:17:38.590Z,0.70
2022-07-26T15:20:07.086Z,0.80
2022-07-26T15:22:35.734Z,1.00
2022-07-26T15:25:03.580Z,0.90
2022-07-26T15:27:31.345Z,0.98
2022-07-26T15:30:04.207Z,0.90
2022-07-26T15:32:34.455Z,0.60
2022-07-26T15:35:02.556Z,0.70
2022-07-26T15:37:30.499Z,0.90
2022-07-26T15:39:58.800Z,0.70
2022-07-26T15:42:26.670Z,0.60
2022-07-26T15:44:55.704Z,0.75
2022-07-26T15:47:52.309Z,0.90
2022-07-26T15:50:14.259Z,0.60
2022-07-26T15:52:45.007Z,0.88
2022-07-26T15:55:14.030Z,0.73
2022-07-26T15:57:41.650Z,0.57
2022-07-26T16:00:12.188Z,0.60
2022-07-26T16:02:40.912Z,0.57
2022-07-26T16:05:10.019Z,0.50
2022-07-26T16:07:41.943Z,0.57
2022-07-26T16:10:12.296Z,0.50
2022-07-26T16:12:41.461Z,0.50
2022-07-26T16:15:11.152Z,0.50
2022-07-26T16:17:39.355Z,0.50
2022-07-26T16:20:07.805Z,0.55
2022-07-26T16:22:35.781Z,0.40
2022-07-26T16:25:05.990Z,0.50
2022-07-26T16:27:33.749Z,0.75
2022-07-26T16:30:01.333Z,0.50
2022-07-26T16:32:29.143Z,0.50
2022-07-26T16:34:56.749Z,0.50
2022-07-26T16:37:24.356Z,0.57
2022-07-26T16:39:52.103Z,0.60
2022-07-26T16:42:19.885Z,0.50
2022-07-26T16:44:47.550Z,0.50
2022-07-26T16:47:15.295Z,0.52
2022-07-26T16:49:43.256Z,0.50
2022-07-26T16:52:10.892Z,0.50
2022-07-26T16:54:38.471Z,0.50
2022-07-26T16:57:06.195Z,0.63
2022-07-26T16:59:33.953Z,0.60
2022-07-26T17:02:03.212Z,0.47
2022-07-26T17:04:31.015Z,0.50
2022-07-26T17:07:23.380Z,0.57
2022-07-26T17:09:46.857Z,0.40
2022-07-26T17:12:14.553Z,0.77
2022-07-26T17:14:42.134Z,0.60
2022-07-26T17:17:09.839Z,0.50
2022-07-26T17:19:37.655Z,0.77
2022-07-26T17:22:05.224Z,1.23
2022-07-26T17:24:32.886Z,0.60
2022-07-26T17:27:01.090Z,0.70
2022-07-26T17:29:28.694Z,0.55
2022-07-26T17:31:56.397Z,0.60
2022-07-26T17:34:24.229Z,0.40
2022-07-26T17:37:03.299Z,0.50
2022-07-26T17:39:51.480Z,0.63
2022-07-26T17:42:21.102Z,0.55
2022-07-26T17:44:49.556Z,0.45
2022-07-26T17:47:27.498Z,0.65
2022-07-26T17:49:57.188Z,0.50
2022-07-26T17:52:26.597Z,0.40
2022-07-26T17:54:55.795Z,0.40
2022-07-26T17:57:23.621Z,0.40
2022-07-26T17:59:51.387Z,0.40
2022-07-26T18:02:19.215Z,0.40
2022-07-26T18:04:47.017Z,0.40
2022-07-26T18:07:14.922Z,0.30
2022-07-26T18:09:42.746Z,0.68
2022-07-26T18:12:10.433Z,0.40
2022-07-26T18:14:38.736Z,0.50
2022-07-26T18:17:06.690Z,0.57
2022-07-26T18:19:34.377Z,0.32
2022-07-26T18:22:05.894Z,0.47
2022-07-26T18:24:34.053Z,0.35
2022-07-26T18:27:01.775Z,0.40
2022-07-26T18:29:29.845Z,0.50
2022-07-26T18:32:02.354Z,0.43
2022-07-26T18:34:30.051Z,0.50
2022-07-26T18:36:57.739Z,0.60
2022-07-26T18:39:25.375Z,0.50
2022-07-26T18:42:01.248Z,0.40
2022-07-26T18:44:29.026Z,0.40
2022-07-26T18:46:56.742Z,0.60
2022-07-26T18:49:30.733Z,0.40
2022-07-26T18:52:07.483Z,0.40
2022-07-26T18:54:36.518Z,0.30
2022-07-26T18:57:04.590Z,0.40
2022-07-26T18:59:32.583Z,0.40
2022-07-26T19:02:00.596Z,0.50
2022-07-26T19:04:28.593Z,0.40
2022-07-26T19:06:56.249Z,0.60
2022-07-26T19:09:24.070Z,0.40
2022-07-26T19:11:51.796Z,0.50
2022-07-26T19:14:19.466Z,0.50
2022-07-26T19:16:47.519Z,0.60
2022-07-26T19:19:15.745Z,0.50
2022-07-26T19:21:47.336Z,0.52
2022-07-26T19:24:17.967Z,0.40
2022-07-26T19:26:45.754Z,0.40
2022-07-26T19:29:14.012Z,0.40
2022-07-26T19:31:44.863Z,0.53
2022-07-26T19:34:14.903Z,0.60
2022-07-26T19:36:42.765Z,0.50
2022-07-26T19:39:10.730Z,0.40
2022-07-26T19:41:38.588Z,0.40
2022-07-26T19:44:06.263Z,0.50
2022-07-26T19:46:34.125Z,0.57
2022-07-26T19:49:04.533Z,0.40
2022-07-26T19:51:32.554Z,0.40
2022-07-26T19:54:00.206Z,0.60
2022-07-26T19:56:28.461Z,0.60
2022-07-26T19:58:57.168Z,0.40
2022-07-26T20:01:24.872Z,0.60
2022-07-26T20:03:53.362Z,0.50
2022-07-26T20:06:21.022Z,0.55
2022-07-26T20:08:49.905Z,0.87
2022-07-26T20:11:19.976Z,0.90
2022-07-26T20:13:48.669Z,0.90
2022-07-26T20:16:16.723Z,0.90
2022-07-26T20:18:44.428Z,0.65
2022-07-26T20:21:11.997Z,0.80
2022-07-26T20:23:40.597Z,1.17
2022-07-26T20:26:08.282Z,0.70
2022-07-26T20:28:35.925Z,0.70
2022-07-26T20:31:03.805Z,0.68
2022-07-26T20:33:31.519Z,0.50
2022-07-26T20:35:59.239Z,0.50
2022-07-26T20:38:27.230Z,0.40
2022-07-26T20:40:54.855Z,0.43
2022-07-26T20:43:22.594Z,0.40
2022-07-26T20:45:55.013Z,0.43
2022-07-26T20:48:23.014Z,0.60
2022-07-26T20:50:50.625Z,0.60
2022-07-26T20:53:18.358Z,0.50
2022-07-26T20:55:46.234Z,0.50
2022-07-26T20:58:15.574Z,0.50
2022-07-26T21:00:43.333Z,0.52
2022-07-26T21:03:13.789Z,0.40
2022-07-26T21:05:41.552Z,0.80
2022-07-26T21:08:09.540Z,0.50
2022-07-26T21:10:37.308Z,0.40
2022-07-26T21:13:04.954Z,0.57
2022-07-26T21:15:32.660Z,0.50
2022-07-26T21:18:01.177Z,0.50
2022-07-26T21:20:28.942Z,0.52
2022-07-26T21:23:08.085Z,0.60
2022-07-26T21:25:40.816Z,0.43
2022-07-26T21:28:08.979Z,0.60
2022-07-26T21:30:36.645Z,0.40
2022-07-26T21:33:04.269Z,0.50
2022-07-26T21:35:33.156Z,0.50
2022-07-26T21:38:00.910Z,0.50
2022-07-26T21:40:28.671Z,0.60
2022-07-26T21:42:56.484Z,0.68
2022-07-26T21:45:24.117Z,0.70
2022-07-26T21:47:54.239Z,0.70
2022-07-26T21:50:22.250Z,0.80
2022-07-26T21:52:49.940Z,0.60
2022-07-26T21:55:18.062Z,0.80
2022-07-26T21:57:46.143Z,0.50
2022-07-26T22:00:15.589Z,0.70
2022-07-26T22:02:43.231Z,0.50
2022-07-26T22:05:29.717Z,0.60
2022-07-26T22:07:57.471Z,0.80
2022-07-26T22:10:25.179Z,0.60
2022-07-26T22:12:53.012Z,0.80
2022-07-26T22:15:21.741Z,0.80
2022-07-26T22:17:49.413Z,0.70
2022-07-26T22:20:17.022Z,0.80
2022-07-26T22:22:45.013Z,0.70
2022-07-26T22:25:12.716Z,0.70
2022-07-26T22:27:40.368Z,0.98
2022-07-26T22:30:08.444Z,0.80
2022-07-26T22:32:36.106Z,0.70
2022-07-26T22:35:03.979Z,0.90
2022-07-26T22:37:31.841Z,0.70
2022-07-26T22:39:59.387Z,0.80
2022-07-26T22:42:27.158Z,0.95
2022-07-26T22:44:54.717Z,0.98
2022-07-26T22:47:22.545Z,1.60
2022-07-26T22:49:50.944Z,1.10
2022-07-26T22:52:18.657Z,0.93
2022-07-26T22:54:46.232Z,0.80
2022-07-26T22:57:13.934Z,0.90
2022-07-26T22:59:41.526Z,0.73
2022-07-26T23:02:09.238Z,0.83
2022-07-26T23:04:36.877Z,0.90
2022-07-26T23:07:04.683Z,0.80
2022-07-26T23:09:32.329Z,0.90
2022-07-26T23:12:00.015Z,0.77
2022-07-26T23:14:27.659Z,0.70
2022-07-26T23:16:55.317Z,0.70
2022-07-26T23:19:22.913Z,0.75
2022-07-26T23:21:50.602Z,0.57
2022-07-26T23:24:18.266Z,0.75
2022-07-26T23:26:45.862Z,0.60
2022-07-26T23:29:13.758Z,0.75
2022-07-26T23:31:42.471Z,0.65
2022-07-26T23:34:10.218Z,0.73
2022-07-26T23:36:37.883Z,0.60
2022-07-26T23:39:05.744Z,0.87
2022-07-26T23:41:33.724Z,0.80
2022-07-26T23:44:01.318Z,0.60
2022-07-26T23:46:29.154Z,0.73
2022-07-26T23:48:58.650Z,0.60
2022-07-26T23:51:26.625Z,0.73
2022-07-26T23:53:54.303Z,0.60
2022-07-26T23:56:22.236Z,0.73
2022-07-26T23:58:50.317Z,0.82
